Time,TemperatureF,DewpointF,PressureIn,WindDirection,WindDirectionDegrees,WindSpeedMPH,WindSpeedGustMPH,Humidity,HourlyPrecipIn,Conditions,Clouds,dailyrainin,SoftwareType,DateUTC
2013-04-03 00:00:00,25.9,13.9,27.36,NNW,339,8.7,12.2,59,0.00,--,--,0.00,awk and wget,2013-04-03 04:00:00,
2013-04-03 00:05:00,25.0,13.9,27.36,NNW,341,3.9,12.2,62,0.00,--,--,0.00,awk and wget,2013-04-03 04:05:00,
2013-04-03 00:10:00,24.5,13.7,27.36,NE,43,1.9,12.2,62,0.00,--,--,0.00,awk and wget,2013-04-03 04:10:00,
2013-04-03 00:15:00,23.8,14.4,27.37,NE,54,2.9,11.6,67,0.00,--,--,0.00,awk and wget,2013-04-03 04:15:00,
2013-04-03 00:20:00,23.4,14.4,27.37,North,359,3.7,9.7,68,0.00,--,--,0.00,awk and wget,2013-04-03 04:20:00,
2013-04-03 00:30:00,23.3,14.3,27.37,NE,48,3.6,12.2,67,0.00,--,--,0.00,awk and wget,2013-04-03 04:30:00,
2013-04-03 00:35:00,23.3,14.1,27.37,North,8,3.7,12.2,67,0.00,--,--,0.00,awk and wget,2013-04-03 04:35:00,
2013-04-03 00:40:00,22.8,14.3,27.37,NNW,340,2.3,16.5,69,0.00,--,--,0.00,awk and wget,2013-04-03 04:40:00,
2013-04-03 00:45:00,22.8,14.8,27.37,NNW,342,3.4,16.5,70,0.00,--,--,0.00,awk and wget,2013-04-03 04:45:00,
2013-04-03 00:50:00,23.6,14.2,27.37,NNW,341,0.8,16.5,66,0.00,--,--,0.00,awk and wget,2013-04-03 04:50:00,
2013-04-03 00:55:00,23.2,14.5,27.37,NNW,338,5.1,12.5,68,0.00,--,--,0.00,awk and wget,2013-04-03 04:55:00,
2013-04-03 01:00:00,24.0,13.9,27.37,NNW,337,3.9,12.5,64,0.00,--,--,0.00,awk and wget,2013-04-03 05:00:00,
2013-04-03 01:10:00,23.9,15.0,27.37,NE,44,1.9,8.4,68,0.00,--,--,0.00,awk and wget,2013-04-03 05:10:00,
2013-04-03 01:15:00,23.9,14.3,27.37,NE,35,2.9,7.7,66,0.00,--,--,0.00,awk and wget,2013-04-03 05:15:00,
2013-04-03 01:20:00,23.1,14.8,27.37,NE,45,5.3,7.7,69,0.00,--,--,0.00,awk and wget,2013-04-03 05:20:00,
2013-04-03 01:25:00,22.5,14.4,27.37,NNW,338,4.7,8.4,70,0.00,--,--,0.00,awk and wget,2013-04-03 05:25:00,
2013-04-03 01:30:00,22.4,14.4,27.37,ENE,74,2.9,8.4,70,0.00,--,--,0.00,awk and wget,2013-04-03 05:30:00,
2013-04-03 01:35:00,22.6,14.5,27.38,ENE,61,3.5,8.4,70,0.00,--,--,0.00,awk and wget,2013-04-03 05:35:00,
2013-04-03 01:40:00,23.0,14.5,27.37,NNE,19,5.9,7.5,69,0.00,--,--,0.00,awk and wget,2013-04-03 05:40:00,
2013-04-03 01:45:00,22.9,14.5,27.37,NE,42,2.9,7.6,69,0.00,--,--,0.00,awk and wget,2013-04-03 05:45:00,
2013-04-03 01:50:00,23.3,14.2,27.38,NNE,27,5.3,8.0,67,0.00,--,--,0.00,awk and wget,2013-04-03 05:50:00,
2013-04-03 01:55:00,22.8,14.5,27.38,NNW,340,3.3,8.0,69,0.00,--,--,0.00,awk and wget,2013-04-03 05:55:00,
2013-04-03 02:00:00,22.9,14.6,27.38,NNE,32,4.1,8.0,70,0.00,--,--,0.00,awk and wget,2013-04-03 06:00:00,
2013-04-03 02:05:00,24.0,15.0,27.38,NNE,14,7.7,9.3,68,0.00,--,--,0.00,awk and wget,2013-04-03 06:05:00,
2013-04-03 02:10:00,22.9,13.5,27.39,NNE,15,2.3,9.3,66,0.00,--,--,0.00,awk and wget,2013-04-03 06:10:00,
2013-04-03 02:20:00,22.8,14.0,27.38,ENE,67,2.4,9.3,68,0.00,--,--,0.00,awk and wget,2013-04-03 06:20:00,
2013-04-03 02:30:00,24.0,13.7,27.38,NE,48,3.6,9.3,64,0.00,--,--,0.00,awk and wget,2013-04-03 06:30:00,
2013-04-03 02:40:00,25.2,12.6,27.38,NNE,24,8.0,10.1,58,0.00,--,--,0.00,awk and wget,2013-04-03 06:40:00,
2013-04-03 02:45:00,24.7,12.1,27.39,NNW,341,9.0,10.1,58,0.00,--,--,0.00,awk and wget,2013-04-03 06:45:00,
2013-04-03 02:50:00,24.4,12.9,27.39,NNW,343,7.6,13.9,60,0.00,--,--,0.00,awk and wget,2013-04-03 06:50:00,
2013-04-03 03:00:00,25.3,12.4,27.39,NNW,342,7.3,15.9,57,0.00,--,--,0.00,awk and wget,2013-04-03 07:00:00,
2013-04-03 03:05:00,25.8,11.7,27.39,NNW,340,11.8,15.9,54,0.00,--,--,0.00,awk and wget,2013-04-03 07:05:00,
2013-04-03 03:10:00,25.9,11.4,27.39,NNW,343,8.0,15.9,53,0.00,--,--,0.00,awk and wget,2013-04-03 07:10:00,
2013-04-03 03:15:00,26.1,10.6,27.39,NNW,337,5.8,14.3,51,0.00,--,--,0.00,awk and wget,2013-04-03 07:15:00,
2013-04-03 03:20:00,26.1,10.4,27.40,NNW,343,11.2,14.3,51,0.00,--,--,0.00,awk and wget,2013-04-03 07:20:00,
2013-04-03 03:25:00,26.2,10.6,27.39,NNE,24,4.5,12.6,51,0.00,--,--,0.00,awk and wget,2013-04-03 07:25:00,
2013-04-03 03:30:00,25.7,10.6,27.40,NE,40,6.3,12.6,52,0.00,--,--,0.00,awk and wget,2013-04-03 07:30:00,
2013-04-03 03:35:00,25.7,10.7,27.40,NNE,26,3.8,9.4,52,0.00,--,--,0.00,awk and wget,2013-04-03 07:35:00,
2013-04-03 03:40:00,24.8,11.4,27.39,NE,41,1.6,7.7,56,0.00,--,--,0.00,awk and wget,2013-04-03 07:40:00,
2013-04-03 03:45:00,23.3,13.1,27.39,NE,37,1.2,6.7,64,0.00,--,--,0.00,awk and wget,2013-04-03 07:45:00,
2013-04-03 03:50:00,23.0,13.1,27.39,NNW,342,0.0,5.6,65,0.00,--,--,0.00,awk and wget,2013-04-03 07:50:00,
2013-04-03 03:55:00,22.5,13.6,27.39,NNW,341,0.2,5.7,68,0.00,--,--,0.00,awk and wget,2013-04-03 07:55:00,
2013-04-03 04:00:00,21.8,12.9,27.39,NNW,338,1.9,5.7,68,0.00,--,--,0.00,awk and wget,2013-04-03 08:00:00,
2013-04-03 04:05:00,21.5,14.1,27.39,NNW,337,1.9,6.5,72,0.00,--,--,0.00,awk and wget,2013-04-03 08:05:00,
2013-04-03 04:10:00,21.0,14.5,27.40,NNW,339,0.0,7.1,75,0.00,--,--,0.00,awk and wget,2013-04-03 08:10:00,
2013-04-03 04:15:00,20.8,14.0,27.40,East,84,2.2,7.1,74,0.00,--,--,0.00,awk and wget,2013-04-03 08:15:00,
2013-04-03 04:20:00,20.5,13.9,27.39,SSE,147,1.7,7.1,75,0.00,--,--,0.00,awk and wget,2013-04-03 08:20:00,
2013-04-03 04:25:00,20.6,13.8,27.40,NNW,347,1.2,5.8,74,0.00,--,--,0.00,awk and wget,2013-04-03 08:25:00,
2013-04-03 04:30:00,20.6,14.3,27.40,NNW,338,0.8,6.1,76,0.00,--,--,0.00,awk and wget,2013-04-03 08:30:00,
2013-04-03 04:35:00,20.8,13.6,27.40,SE,145,0.6,6.1,73,0.00,--,--,0.00,awk and wget,2013-04-03 08:35:00,
2013-04-03 04:40:00,20.1,13.3,27.39,ESE,105,0.9,6.1,74,0.00,--,--,0.00,awk and wget,2013-04-03 08:40:00,
2013-04-03 04:45:00,20.0,13.7,27.40,ENE,68,2.2,6.8,76,0.00,--,--,0.00,awk and wget,2013-04-03 08:45:00,
2013-04-03 04:50:00,19.8,14.1,27.40,NNW,339,4.8,8.9,78,0.00,--,--,0.00,awk and wget,2013-04-03 08:50:00,
2013-04-03 04:55:00,20.8,13.9,27.40,NNW,343,3.4,8.9,74,0.00,--,--,0.00,awk and wget,2013-04-03 08:55:00,
2013-04-03 05:00:00,20.0,14.0,27.40,NNW,344,2.6,10.5,77,0.00,--,--,0.00,awk and wget,2013-04-03 09:00:00,
2013-04-03 05:05:00,21.4,14.1,27.40,NNW,339,1.2,10.5,72,0.00,--,--,0.00,awk and wget,2013-04-03 09:05:00,
2013-04-03 05:10:00,19.8,13.1,27.40,NNW,343,3.6,10.5,74,0.00,--,--,0.00,awk and wget,2013-04-03 09:10:00,
2013-04-03 05:15:00,19.7,13.6,27.40,NNW,346,1.5,7.7,76,0.00,--,--,0.00,awk and wget,2013-04-03 09:15:00,
2013-04-03 05:20:00,18.8,12.9,27.40,NNW,343,1.9,7.7,77,0.00,--,--,0.00,awk and wget,2013-04-03 09:20:00,
2013-04-03 05:30:00,18.8,13.5,27.40,NNW,341,0.1,4.7,79,0.00,--,--,0.00,awk and wget,2013-04-03 09:30:00,
2013-04-03 05:35:00,18.4,13.3,27.40,NNW,339,1.4,5.4,79,0.00,--,--,0.00,awk and wget,2013-04-03 09:35:00,
2013-04-03 05:40:00,18.3,13.4,27.40,North,355,1.1,5.4,80,0.00,--,--,0.00,awk and wget,2013-04-03 09:40:00,
2013-04-03 05:45:00,18.3,13.6,27.41,NNW,338,2.9,5.4,81,0.00,--,--,0.00,awk and wget,2013-04-03 09:45:00,
2013-04-03 05:50:00,17.8,13.1,27.41,NNW,343,1.1,5.0,81,0.00,--,--,0.00,awk and wget,2013-04-03 09:50:00,
2013-04-03 06:00:00,16.9,12.5,27.41,NNW,341,0.6,5.2,82,0.00,--,--,0.00,awk and wget,2013-04-03 10:00:00,
2013-04-03 06:05:00,17.0,13.1,27.41,NNW,341,0.6,6.5,84,0.00,--,--,0.00,awk and wget,2013-04-03 10:05:00,
2013-04-03 06:10:00,17.2,13.5,27.41,ENE,61,2.4,6.5,85,0.00,--,--,0.00,awk and wget,2013-04-03 10:10:00,
2013-04-03 06:20:00,16.8,13.1,27.42,NE,42,0.4,6.4,84,0.00,--,--,0.00,awk and wget,2013-04-03 10:20:00,
2013-04-03 06:30:00,16.8,13.3,27.42,ESE,118,0.1,6.1,86,0.00,--,--,0.00,awk and wget,2013-04-03 10:30:00,
2013-04-03 06:40:00,16.3,13.0,27.42,NE,45,0.0,6.1,86,0.00,--,--,0.00,awk and wget,2013-04-03 10:40:00,
2013-04-03 06:45:00,15.9,12.7,27.42,NNW,343,0.8,5.2,86,0.00,--,--,0.00,awk and wget,2013-04-03 10:45:00,
2013-04-03 06:50:00,17.3,14.2,27.42,NNW,340,0.6,7.3,87,0.00,--,--,0.00,awk and wget,2013-04-03 10:50:00,
2013-04-03 07:00:00,16.9,13.4,27.42,NNE,32,0.4,7.8,85,0.00,--,--,0.00,awk and wget,2013-04-03 11:00:00,
2013-04-03 07:05:00,16.5,13.1,27.42,ENE,67,0.9,7.8,85,0.00,--,--,0.00,awk and wget,2013-04-03 11:05:00,
2013-04-03 07:10:00,16.1,12.8,27.42,NE,39,1.8,6.4,86,0.00,--,--,0.00,awk and wget,2013-04-03 11:10:00,
2013-04-03 07:15:00,16.4,13.3,27.42,NE,39,3.7,7.6,87,0.00,--,--,0.00,awk and wget,2013-04-03 11:15:00,
2013-04-03 07:20:00,16.8,13.7,27.42,NNW,340,0.3,7.6,87,0.00,--,--,0.00,awk and wget,2013-04-03 11:20:00,
2013-04-03 07:25:00,17.5,13.7,27.42,East,98,0.4,7.8,84,0.00,--,--,0.00,awk and wget,2013-04-03 11:25:00,
2013-04-03 07:30:00,16.8,12.9,27.42,NE,36,3.6,7.8,84,0.00,--,--,0.00,awk and wget,2013-04-03 11:30:00,
2013-04-03 07:35:00,17.0,13.3,27.41,NNW,344,1.8,7.8,85,0.00,--,--,0.00,awk and wget,2013-04-03 11:35:00,
2013-04-03 07:40:00,17.2,13.8,27.41,ENE,68,2.4,7.0,86,0.00,--,--,0.00,awk and wget,2013-04-03 11:40:00,
2013-04-03 07:45:00,17.8,14.2,27.42,NNW,343,3.7,9.2,85,0.00,--,--,0.00,awk and wget,2013-04-03 11:45:00,
2013-04-03 07:50:00,18.5,14.7,27.42,ENE,57,1.1,9.2,84,0.00,--,--,0.00,awk and wget,2013-04-03 11:50:00,
2013-04-03 07:55:00,19.5,14.9,27.42,East,82,1.5,9.2,82,0.00,--,--,0.00,awk and wget,2013-04-03 11:55:00,
2013-04-03 08:00:00,19.8,14.8,27.42,NNW,338,3.2,8.7,80,0.00,--,--,0.00,awk and wget,2013-04-03 12:00:00,
2013-04-03 08:10:00,21.7,15.8,27.43,SE,138,2.9,8.7,77,0.00,--,--,0.00,awk and wget,2013-04-03 12:10:00,
2013-04-03 08:15:00,22.1,16.1,27.43,NNW,340,1.5,6.9,77,0.00,--,--,0.00,awk and wget,2013-04-03 12:15:00,
2013-04-03 08:20:00,22.8,16.5,27.43,NNW,344,2.6,7.5,76,0.00,--,--,0.00,awk and wget,2013-04-03 12:20:00,
2013-04-03 08:30:00,24.6,16.8,27.43,SE,132,1.7,7.5,71,0.00,--,--,0.00,awk and wget,2013-04-03 12:30:00,
2013-04-03 08:35:00,25.7,17.4,27.43,East,82,1.8,6.9,70,0.00,--,--,0.00,awk and wget,2013-04-03 12:35:00,
2013-04-03 08:40:00,26.8,17.9,27.43,North,356,0.5,6.9,68,0.00,--,--,0.00,awk and wget,2013-04-03 12:40:00,
2013-04-03 08:45:00,26.3,15.6,27.44,NNW,338,1.6,5.6,63,0.00,--,--,0.00,awk and wget,2013-04-03 12:45:00,
2013-04-03 08:50:00,27.2,15.7,27.44,SE,143,5.2,7.6,61,0.00,--,--,0.00,awk and wget,2013-04-03 12:50:00,
2013-04-03 08:55:00,28.2,14.0,27.44,NNW,336,4.5,7.6,54,0.00,--,--,0.00,awk and wget,2013-04-03 12:55:00,
2013-04-03 09:00:00,28.9,15.2,27.44,NNW,336,6.1,7.6,55,0.00,--,--,0.00,awk and wget,2013-04-03 13:00:00,
2013-04-03 09:05:00,29.1,10.4,27.44,NNW,342,5.6,7.6,44,0.00,--,--,0.00,awk and wget,2013-04-03 13:05:00,
2013-04-03 09:10:00,29.6,10.7,27.44,SE,139,2.2,7.6,44,0.00,--,--,0.00,awk and wget,2013-04-03 13:10:00,
2013-04-03 09:15:00,30.5,10.2,27.44,NNW,345,3.2,7.0,42,0.00,--,--,0.00,awk and wget,2013-04-03 13:15:00,
2013-04-03 09:20:00,30.2,6.5,27.45,North,2,4.5,9.2,36,0.00,--,--,0.00,awk and wget,2013-04-03 13:20:00,
2013-04-03 09:30:00,30.2,9.2,27.45,NNW,337,4.0,11.3,40,0.00,--,--,0.00,awk and wget,2013-04-03 13:30:00,
2013-04-03 09:35:00,30.7,8.2,27.45,NNW,342,2.9,11.3,38,0.00,--,--,0.00,awk and wget,2013-04-03 13:35:00,
2013-04-03 09:40:00,31.1,6.7,27.46,NNW,342,1.6,11.3,35,0.00,--,--,0.00,awk and wget,2013-04-03 13:40:00,
2013-04-03 09:45:00,32.0,6.1,27.47,NNW,341,1.8,9.3,32,0.00,--,--,0.00,awk and wget,2013-04-03 13:45:00,
2013-04-03 09:50:00,32.3,6.1,27.47,NNW,334,5.2,17.9,32,0.00,--,--,0.00,awk and wget,2013-04-03 13:50:00,
2013-04-03 09:55:00,33.2,7.8,27.47,NNW,334,8.5,22.2,33,0.00,--,--,0.00,awk and wget,2013-04-03 13:55:00,
2013-04-03 10:00:00,31.4,5.0,27.46,NNW,344,18.7,25.6,32,0.00,--,--,0.00,awk and wget,2013-04-03 14:00:00,
2013-04-03 10:10:00,32.5,5.8,27.46,NNW,343,16.0,25.6,31,0.00,--,--,0.00,awk and wget,2013-04-03 14:10:00,
2013-04-03 10:15:00,31.9,5.4,27.46,NNW,335,11.6,25.2,31,0.00,--,--,0.00,awk and wget,2013-04-03 14:15:00,
2013-04-03 10:20:00,32.0,5.6,27.46,NNW,336,12.2,25.2,32,0.00,--,--,0.00,awk and wget,2013-04-03 14:20:00,
2013-04-03 10:30:00,34.5,6.6,27.46,NNE,13,16.9,21.9,30,0.00,--,--,0.00,awk and wget,2013-04-03 14:30:00,
2013-04-03 10:35:00,33.1,5.7,27.46,NNW,338,13.1,21.9,30,0.00,--,--,0.00,awk and wget,2013-04-03 14:35:00,
2013-04-03 10:40:00,34.1,6.2,27.46,NNW,343,5.4,19.6,30,0.00,--,--,0.00,awk and wget,2013-04-03 14:40:00,
2013-04-03 10:45:00,33.9,5.4,27.46,North,351,5.8,19.6,29,0.00,--,--,0.00,awk and wget,2013-04-03 14:45:00,
2013-04-03 10:50:00,33.3,4.7,27.46,North,359,7.3,19.0,29,0.00,--,--,0.00,awk and wget,2013-04-03 14:50:00,
2013-04-03 10:55:00,33.2,4.6,27.47,NNW,332,9.8,21.3,29,0.00,--,--,0.00,awk and wget,2013-04-03 14:55:00,
2013-04-03 11:00:00,34.7,5.5,27.46,NNW,334,5.6,21.3,28,0.00,--,--,0.00,awk and wget,2013-04-03 15:00:00,
2013-04-03 11:05:00,35.6,6.2,27.47,NNW,347,9.5,21.3,28,0.00,--,--,0.00,awk and wget,2013-04-03 15:05:00,
2013-04-03 11:10:00,35.3,5.1,27.47,NE,38,12.5,19.1,27,0.00,--,--,0.00,awk and wget,2013-04-03 15:10:00,
2013-04-03 11:15:00,35.4,5.4,27.47,North,5,19.2,19.2,27,0.00,--,--,0.00,awk and wget,2013-04-03 15:15:00,
2013-04-03 11:20:00,34.6,4.7,27.47,NNE,23,15.9,16.7,27,0.00,--,--,0.00,awk and wget,2013-04-03 15:20:00,
2013-04-03 11:30:00,35.5,5.0,27.47,NNW,336,4.3,23.0,27,0.00,--,--,0.00,awk and wget,2013-04-03 15:30:00,
2013-04-03 11:35:00,35.3,4.9,27.47,NNW,331,21.6,23.0,27,0.00,--,--,0.00,awk and wget,2013-04-03 15:35:00,
2013-04-03 11:40:00,34.8,4.3,27.47,NNW,336,14.8,26.3,27,0.00,--,--,0.00,awk and wget,2013-04-03 15:40:00,
2013-04-03 11:45:00,34.4,3.9,27.47,North,9,16.3,26.3,27,0.00,--,--,0.00,awk and wget,2013-04-03 15:45:00,
2013-04-03 11:50:00,34.9,4.1,27.47,NNW,335,17.4,26.3,26,0.00,--,--,0.00,awk and wget,2013-04-03 15:50:00,
2013-04-03 12:00:00,35.3,4.7,27.47,NNW,333,6.5,28.1,27,0.00,--,--,0.00,awk and wget,2013-04-03 16:00:00,
2013-04-03 12:05:00,35.9,4.3,27.47,NNW,333,15.1,28.1,25,0.00,--,--,0.00,awk and wget,2013-04-03 16:05:00,
2013-04-03 12:10:00,35.4,3.2,27.47,North,4,17.7,28.9,25,0.00,--,--,0.00,awk and wget,2013-04-03 16:10:00,
2013-04-03 12:20:00,36.2,4.5,27.46,North,354,18.7,32.7,25,0.00,--,--,0.00,awk and wget,2013-04-03 16:20:00,
2013-04-03 12:30:00,36.1,4.3,27.46,North,349,9.9,24.9,25,0.00,--,--,0.00,awk and wget,2013-04-03 16:30:00,
2013-04-03 12:35:00,36.6,3.7,27.46,NNW,337,10.7,23.6,24,0.00,--,--,0.00,awk and wget,2013-04-03 16:35:00,
2013-04-03 12:40:00,36.2,3.9,27.45,NNW,340,9.8,22.8,25,0.00,--,--,0.00,awk and wget,2013-04-03 16:40:00,
2013-04-03 12:50:00,37.8,4.4,27.45,NNW,339,6.8,23.1,24,0.00,--,--,0.00,awk and wget,2013-04-03 16:50:00,
2013-04-03 12:55:00,37.6,4.0,27.44,NNW,334,11.2,23.3,23,0.00,--,--,0.00,awk and wget,2013-04-03 16:55:00,
2013-04-03 13:00:00,38.2,5.2,27.44,NNW,338,25.4,25.4,24,0.00,--,--,0.00,awk and wget,2013-04-03 17:00:00,
2013-04-03 13:05:00,37.3,3.2,27.45,NNW,334,9.4,23.3,23,0.00,--,--,0.00,awk and wget,2013-04-03 17:05:00,
2013-04-03 13:10:00,38.5,5.3,27.45,NNW,339,8.0,22.5,24,0.00,--,--,0.00,awk and wget,2013-04-03 17:10:00,
2013-04-03 13:20:00,37.9,4.6,27.44,NNW,338,16.4,19.9,24,0.00,--,--,0.00,awk and wget,2013-04-03 17:20:00,
2013-04-03 13:25:00,37.8,4.7,27.44,NNW,332,11.2,19.9,24,0.00,--,--,0.00,awk and wget,2013-04-03 17:25:00,
2013-04-03 13:30:00,37.3,3.6,27.44,NNW,335,21.4,21.6,23,0.00,--,--,0.00,awk and wget,2013-04-03 17:30:00,
2013-04-03 13:35:00,37.7,4.6,27.44,NNW,332,13.6,21.6,24,0.00,--,--,0.00,awk and wget,2013-04-03 17:35:00,
2013-04-03 13:45:00,38.0,4.6,27.43,NNW,333,17.7,24.1,24,0.00,--,--,0.00,awk and wget,2013-04-03 17:45:00,
2013-04-03 13:50:00,38.0,4.4,27.44,North,352,15.1,24.1,24,0.00,--,--,0.00,awk and wget,2013-04-03 17:50:00,
2013-04-03 13:55:00,38.5,4.3,27.44,NNW,337,13.2,24.1,23,0.00,--,--,0.00,awk and wget,2013-04-03 17:55:00,
2013-04-03 14:00:00,38.3,4.0,27.43,NNW,334,9.0,23.8,23,0.00,--,--,0.00,awk and wget,2013-04-03 18:00:00,
2013-04-03 14:05:00,38.6,4.0,27.43,North,356,13.1,23.8,23,0.00,--,--,0.00,awk and wget,2013-04-03 18:05:00,
2013-04-03 14:10:00,38.6,5.4,27.43,North,352,10.9,23.8,24,0.00,--,--,0.00,awk and wget,2013-04-03 18:10:00,
2013-04-03 14:15:00,39.0,4.2,27.43,NNW,337,14.6,22.2,22,0.00,--,--,0.00,awk and wget,2013-04-03 18:15:00,
2013-04-03 14:20:00,38.9,3.7,27.43,North,349,21.0,30.1,22,0.00,--,--,0.00,awk and wget,2013-04-03 18:20:00,
2013-04-03 14:30:00,38.8,2.9,27.43,North,349,13.5,32.5,21,0.00,--,--,0.00,awk and wget,2013-04-03 18:30:00,
2013-04-03 14:35:00,38.8,3.5,27.43,NNW,331,7.6,32.5,22,0.00,--,--,0.00,awk and wget,2013-04-03 18:35:00,
2013-04-03 14:40:00,40.7,4.2,27.44,NNW,331,6.7,23.8,21,0.00,--,--,0.00,awk and wget,2013-04-03 18:40:00,
2013-04-03 14:45:00,40.1,2.9,27.43,NNW,337,4.3,23.8,20,0.00,--,--,0.00,awk and wget,2013-04-03 18:45:00,
2013-04-03 14:55:00,40.9,2.1,27.43,NNW,337,11.0,26.5,19,0.00,--,--,0.00,awk and wget,2013-04-03 18:55:00,
2013-04-03 15:00:00,41.2,1.3,27.43,NNW,335,12.9,26.5,18,0.00,--,--,0.00,awk and wget,2013-04-03 19:00:00,
2013-04-03 15:05:00,39.6,0.4,27.43,NNW,340,16.1,24.7,18,0.00,--,--,0.00,awk and wget,2013-04-03 19:05:00,
2013-04-03 15:10:00,40.3,1.0,27.44,North,352,16.1,26.4,18,0.00,--,--,0.00,awk and wget,2013-04-03 19:10:00,
2013-04-03 15:15:00,40.5,0.8,27.43,NNW,338,5.9,26.4,18,0.00,--,--,0.00,awk and wget,2013-04-03 19:15:00,
2013-04-03 15:20:00,41.4,-0.3,27.44,NNW,336,8.8,26.4,16,0.00,--,--,0.00,awk and wget,2013-04-03 19:20:00,
2013-04-03 15:30:00,40.4,-0.6,27.44,NNW,342,14.0,26.4,17,0.00,--,--,0.00,awk and wget,2013-04-03 19:30:00,
2013-04-03 15:35:00,40.0,-1.1,27.45,NNW,333,19.6,26.4,17,0.00,--,--,0.00,awk and wget,2013-04-03 19:35:00,
2013-04-03 15:40:00,40.0,-1.3,27.44,NNW,333,25.1,28.7,16,0.00,--,--,0.00,awk and wget,2013-04-03 19:40:00,
2013-04-03 15:45:00,41.1,1.7,27.45,NNW,343,17.7,28.7,18,0.00,--,--,0.00,awk and wget,2013-04-03 19:45:00,
2013-04-03 15:50:00,40.1,-0.3,27.44,NNW,334,14.0,28.7,17,0.00,--,--,0.00,awk and wget,2013-04-03 19:50:00,
2013-04-03 15:55:00,40.0,0.2,27.44,NNW,332,11.7,25.9,18,0.00,--,--,0.00,awk and wget,2013-04-03 19:55:00,
2013-04-03 16:05:00,41.1,0.4,27.45,NNE,28,5.5,25.1,17,0.00,--,--,0.00,awk and wget,2013-04-03 20:05:00,
2013-04-03 16:10:00,41.1,0.7,27.44,NNW,341,19.8,24.4,17,0.00,--,--,0.00,awk and wget,2013-04-03 20:10:00,
2013-04-03 16:20:00,41.0,2.1,27.45,NNW,341,16.4,29.3,19,0.00,--,--,0.00,awk and wget,2013-04-03 20:20:00,
2013-04-03 16:30:00,40.3,1.1,27.46,North,351,11.3,29.3,18,0.00,--,--,0.00,awk and wget,2013-04-03 20:30:00,
2013-04-03 16:35:00,41.3,1.1,27.46,NNW,332,10.1,20.4,18,0.00,--,--,0.00,awk and wget,2013-04-03 20:35:00,
2013-04-03 16:40:00,41.7,1.1,27.47,NNW,340,13.9,18.1,17,0.00,--,--,0.00,awk and wget,2013-04-03 20:40:00,
2013-04-03 16:50:00,40.7,0.7,27.46,NNW,329,10.2,27.1,18,0.00,--,--,0.00,awk and wget,2013-04-03 20:50:00,
2013-04-03 17:00:00,41.6,2.1,27.47,NNW,331,9.2,24.2,18,0.00,--,--,0.00,awk and wget,2013-04-03 21:00:00,
2013-04-03 17:05:00,40.6,2.3,27.47,NNW,348,10.7,24.2,19,0.00,--,--,0.00,awk and wget,2013-04-03 21:05:00,
2013-04-03 17:10:00,41.3,2.0,27.47,NNW,331,12.9,24.2,18,0.00,--,--,0.00,awk and wget,2013-04-03 21:10:00,
2013-04-03 17:15:00,41.1,0.6,27.47,NNW,336,13.0,20.0,17,0.00,--,--,0.00,awk and wget,2013-04-03 21:15:00,
2013-04-03 17:20:00,41.1,1.4,27.47,NNW,344,11.0,23.0,18,0.00,--,--,0.00,awk and wget,2013-04-03 21:20:00,
2013-04-03 17:30:00,41.5,1.0,27.47,NNW,340,5.6,34.5,17,0.00,--,--,0.00,awk and wget,2013-04-03 21:30:00,
2013-04-03 17:35:00,41.4,1.6,27.47,NNW,335,7.9,34.5,18,0.00,--,--,0.00,awk and wget,2013-04-03 21:35:00,
2013-04-03 17:40:00,41.1,1.5,27.47,NNW,346,7.2,21.7,18,0.00,--,--,0.00,awk and wget,2013-04-03 21:40:00,
2013-04-03 17:45:00,41.4,1.2,27.47,North,349,13.8,21.7,18,0.00,--,--,0.00,awk and wget,2013-04-03 21:45:00,
2013-04-03 17:50:00,40.7,1.2,27.48,North,351,9.0,21.7,18,0.00,--,--,0.00,awk and wget,2013-04-03 21:50:00,
2013-04-03 17:55:00,40.8,1.1,27.48,North,349,8.5,18.4,18,0.00,--,--,0.00,awk and wget,2013-04-03 21:55:00,
2013-04-03 18:00:00,40.3,0.3,27.48,NNW,332,19.2,31.3,18,0.00,--,--,0.00,awk and wget,2013-04-03 22:00:00,
2013-04-03 18:05:00,39.9,1.1,27.48,NNW,329,15.4,31.3,19,0.00,--,--,0.00,awk and wget,2013-04-03 22:05:00,
2013-04-03 18:10:00,39.5,1.1,27.48,NNW,348,18.7,31.3,19,0.00,--,--,0.00,awk and wget,2013-04-03 22:10:00,
2013-04-03 18:15:00,39.6,1.5,27.48,NNW,327,11.5,27.9,19,0.00,--,--,0.00,awk and wget,2013-04-03 22:15:00,
2013-04-03 18:20:00,39.5,1.7,27.48,North,349,12.7,27.9,19,0.00,--,--,0.00,awk and wget,2013-04-03 22:20:00,
2013-04-03 18:30:00,39.1,2.6,27.48,NNW,338,16.0,26.3,21,0.00,--,--,0.00,awk and wget,2013-04-03 22:30:00,
2013-04-03 18:35:00,39.2,3.1,27.48,NNW,333,5.5,26.3,21,0.00,--,--,0.00,awk and wget,2013-04-03 22:35:00,
2013-04-03 18:40:00,39.0,2.9,27.48,NNW,336,11.7,24.7,21,0.00,--,--,0.00,awk and wget,2013-04-03 22:40:00,
2013-04-03 18:45:00,38.9,3.3,27.49,NNW,338,10.7,24.7,21,0.00,--,--,0.00,awk and wget,2013-04-03 22:45:00,
2013-04-03 18:50:00,38.7,3.9,27.49,NNW,345,11.6,24.7,22,0.00,--,--,0.00,awk and wget,2013-04-03 22:50:00,
2013-04-03 18:55:00,38.6,3.9,27.49,NNW,341,10.5,20.1,22,0.00,--,--,0.00,awk and wget,2013-04-03 22:55:00,
2013-04-03 19:00:00,38.3,4.0,27.48,NNW,347,7.4,24.4,23,0.00,--,--,0.00,awk and wget,2013-04-03 23:00:00,
2013-04-03 19:05:00,37.8,4.1,27.49,NNW,344,8.3,24.4,23,0.00,--,--,0.00,awk and wget,2013-04-03 23:05:00,
2013-04-03 19:15:00,37.1,4.6,27.49,NNW,329,13.5,24.2,25,0.00,--,--,0.00,awk and wget,2013-04-03 23:15:00,
2013-04-03 19:20:00,36.8,4.7,27.49,NNW,334,13.5,24.2,25,0.00,--,--,0.00,awk and wget,2013-04-03 23:20:00,
2013-04-03 19:25:00,36.7,4.9,27.49,NNW,337,7.6,20.8,25,0.00,--,--,0.00,awk and wget,2013-04-03 23:25:00,
2013-04-03 19:30:00,36.4,5.2,27.49,NNW,331,9.4,20.2,26,0.00,--,--,0.00,awk and wget,2013-04-03 23:30:00,
2013-04-03 19:35:00,35.9,5.4,27.50,North,351,9.5,19.6,27,0.00,--,--,0.00,awk and wget,2013-04-03 23:35:00,
2013-04-03 19:40:00,35.5,6.1,27.50,NNE,21,10.1,15.6,28,0.00,--,--,0.00,awk and wget,2013-04-03 23:40:00,
2013-04-03 19:45:00,35.2,6.0,27.50,NE,36,4.8,14.2,28,0.00,--,--,0.00,awk and wget,2013-04-03 23:45:00,
2013-04-03 19:50:00,34.9,6.1,27.50,NNE,31,9.1,12.7,29,0.00,--,--,0.00,awk and wget,2013-04-03 23:50:00,
2013-04-03 19:55:00,34.8,6.6,27.50,North,6,8.7,15.3,30,0.00,--,--,0.00,awk and wget,2013-04-03 23:55:00,
2013-04-03 20:00:00,34.9,6.1,27.50,NNW,332,6.1,17.7,29,0.00,--,--,0.00,awk and wget,2013-04-04 00:00:00,
2013-04-03 20:10:00,34.8,5.3,27.50,NNW,336,7.4,18.1,28,0.00,--,--,0.00,awk and wget,2013-04-04 00:10:00,
2013-04-03 20:15:00,34.9,4.9,27.50,NNW,346,8.4,18.1,27,0.00,--,--,0.00,awk and wget,2013-04-04 00:15:00,
2013-04-03 20:20:00,34.9,5.1,27.50,NNW,345,4.3,18.1,28,0.00,--,--,0.00,awk and wget,2013-04-04 00:20:00,
2013-04-03 20:25:00,34.8,5.1,27.50,NNW,333,8.6,17.1,28,0.00,--,--,0.00,awk and wget,2013-04-04 00:25:00,
2013-04-03 20:30:00,34.2,5.5,27.51,NNW,336,6.2,14.3,29,0.00,--,--,0.00,awk and wget,2013-04-04 00:30:00,
2013-04-03 20:35:00,33.6,5.7,27.50,NNE,12,4.0,14.4,30,0.00,--,--,0.00,awk and wget,2013-04-04 00:35:00,
2013-04-03 20:40:00,32.9,6.1,27.50,NE,38,7.3,14.4,31,0.00,--,--,0.00,awk and wget,2013-04-04 00:40:00,
2013-04-03 20:45:00,33.1,6.3,27.51,NE,45,6.8,14.4,31,0.00,--,--,0.00,awk and wget,2013-04-04 00:45:00,
2013-04-03 20:50:00,32.8,6.9,27.50,NE,34,6.2,13.4,32,0.00,--,--,0.00,awk and wget,2013-04-04 00:50:00,
2013-04-03 21:00:00,31.9,7.8,27.50,NE,39,6.8,12.4,35,0.00,--,--,0.00,awk and wget,2013-04-04 01:00:00,
2013-04-03 21:05:00,32.2,6.9,27.50,NNE,13,7.5,14.5,33,0.00,--,--,0.00,awk and wget,2013-04-04 01:05:00,
2013-04-03 21:10:00,31.3,7.6,27.50,North,9,7.2,14.5,36,0.00,--,--,0.00,awk and wget,2013-04-04 01:10:00,
2013-04-03 21:20:00,31.3,8.5,27.51,NE,43,6.9,11.3,37,0.00,--,--,0.00,awk and wget,2013-04-04 01:20:00,
2013-04-03 21:25:00,31.1,7.8,27.50,NNE,31,6.5,11.3,36,0.00,--,--,0.00,awk and wget,2013-04-04 01:25:00,
2013-04-03 21:30:00,31.0,8.5,27.50,NE,41,9.3,12.9,38,0.00,--,--,0.00,awk and wget,2013-04-04 01:30:00,
2013-04-03 21:35:00,31.0,7.4,27.50,NE,56,7.7,12.9,36,0.00,--,--,0.00,awk and wget,2013-04-04 01:35:00,
2013-04-03 21:40:00,30.5,7.8,27.50,NNE,26,4.1,12.9,37,0.00,--,--,0.00,awk and wget,2013-04-04 01:40:00,
2013-04-03 21:45:00,30.5,7.5,27.50,NE,36,4.9,11.4,37,0.00,--,--,0.00,awk and wget,2013-04-04 01:45:00,
2013-04-03 21:55:00,29.6,8.9,27.50,NE,43,5.4,10.4,41,0.00,--,--,0.00,awk and wget,2013-04-04 01:55:00,
2013-04-03 22:00:00,29.2,10.1,27.50,ENE,74,4.0,10.4,44,0.00,--,--,0.00,awk and wget,2013-04-04 02:00:00,
2013-04-03 22:05:00,28.9,9.3,27.50,ENE,76,4.8,10.4,43,0.00,--,--,0.00,awk and wget,2013-04-04 02:05:00,
2013-04-03 22:10:00,28.2,10.3,27.50,NE,44,4.7,9.2,46,0.00,--,--,0.00,awk and wget,2013-04-04 02:10:00,
2013-04-03 22:15:00,27.5,10.7,27.50,ENE,76,7.1,9.2,48,0.00,--,--,0.00,awk and wget,2013-04-04 02:15:00,
2013-04-03 22:20:00,27.4,10.1,27.50,NE,42,5.0,9.2,47,0.00,--,--,0.00,awk and wget,2013-04-04 02:20:00,
2013-04-03 22:25:00,27.5,10.1,27.50,NE,44,4.3,9.4,47,0.00,--,--,0.00,awk and wget,2013-04-04 02:25:00,
2013-04-03 22:30:00,27.1,10.5,27.50,NNE,24,4.7,9.4,49,0.00,--,--,0.00,awk and wget,2013-04-04 02:30:00,
2013-04-03 22:35:00,27.0,10.1,27.51,NNE,27,4.7,9.4,48,0.00,--,--,0.00,awk and wget,2013-04-04 02:35:00,
2013-04-03 22:40:00,26.8,10.1,27.51,NE,48,4.3,8.3,48,0.00,--,--,0.00,awk and wget,2013-04-04 02:40:00,
2013-04-03 22:45:00,26.6,10.3,27.50,NNE,12,5.5,8.8,49,0.00,--,--,0.00,awk and wget,2013-04-04 02:45:00,
2013-04-03 22:50:00,26.9,10.6,27.51,NE,45,5.7,8.8,49,0.00,--,--,0.00,awk and wget,2013-04-04 02:50:00,
2013-04-03 22:55:00,27.0,10.1,27.51,NE,36,5.5,8.8,48,0.00,--,--,0.00,awk and wget,2013-04-04 02:55:00,
2013-04-03 23:00:00,27.3,9.8,27.51,NNW,340,3.6,9.3,47,0.00,--,--,0.00,awk and wget,2013-04-04 03:00:00,
2013-04-03 23:05:00,26.6,10.9,27.51,NE,45,4.8,11.0,50,0.00,--,--,0.00,awk and wget,2013-04-04 03:05:00,
2013-04-03 23:10:00,27.2,10.4,27.51,NNE,15,5.9,11.0,48,0.00,--,--,0.00,awk and wget,2013-04-04 03:10:00,
2013-04-03 23:15:00,26.3,10.0,27.52,NNE,13,1.0,11.0,49,0.00,--,--,0.00,awk and wget,2013-04-04 03:15:00,
2013-04-03 23:20:00,25.8,9.4,27.52,North,3,1.1,7.0,49,0.00,--,--,0.00,awk and wget,2013-04-04 03:20:00,
2013-04-03 23:30:00,24.9,9.6,27.52,NNE,19,0.8,5.6,51,0.00,--,--,0.00,awk and wget,2013-04-04 03:30:00,
2013-04-03 23:35:00,24.6,9.8,27.52,NNW,348,2.0,5.6,52,0.00,--,--,0.00,awk and wget,2013-04-04 03:35:00,
2013-04-03 23:40:00,24.5,9.2,27.52,NNW,343,0.7,6.2,51,0.00,--,--,0.00,awk and wget,2013-04-04 03:40:00,
2013-04-03 23:45:00,24.5,9.8,27.52,SE,138,2.7,6.4,52,0.00,--,--,0.00,awk and wget,2013-04-04 03:45:00,
2013-04-03 23:50:00,24.5,10.5,27.52,NNW,335,3.2,6.7,54,0.00,--,--,0.00,awk and wget,2013-04-04 03:50:00,
2013-04-03 23:55:00,23.7,10.3,27.52,NNW,335,2.9,6.7,55,0.00,--,--,0.00,awk and wget,2013-04-04 03:55:00,